Main page
METAR-TAF:

METAR-TAF

Airports :

Carlisle, England

Carlisle Lake District Airport

latitude: 54-56-15N, longitude: 002-48-33W, elevation: 57 m

Current weather observation

The report was made 14 hours and 28 minutes ago, at 16:50 UTC
Wind 10 kt from the West
Temperature 23°C
Humidity 61%
Pressure 1021 hPa
Visibility 10 km or more
Few clouds at a height of 3400 ft

METAR: EGNC 251650Z 28010KT 9999 FEW034 23/15 Q1021

Time: 08:18 (07:18 UTC)

Forecast

The report was made 17 hours and 22 minutes ago, at 13:56 UTC
Forecast valid from 25 at 15 UTC to 25 at 17 UTC
Wind 5 kt from variable directions
Visibility 10 km or more
Few clouds at a height of 3000 ft

TAF: EGNC 251356Z 2515/2517 VRB05KT 9999 FEW030

Weather observations and forecasts of more than 4000 airports (METAR and TAF reports).

The available stations are represented by yellow and red dots on the map.

Hover mouse over dot to see the name of the station.

Then click to see weather observations and forecasts.

To change the map : click on the green buttons with a black cross to zoom in, on the green button with a dash to zoom out, or on the green arrows for adjacent maps.


METAR-TAF: